Time,TemperatureF,DewpointF,PressureIn,WindDirection,WindDirectionDegrees,WindSpeedMPH,WindSpeedGustMPH,Humidity,HourlyPrecipIn,Conditions,Clouds,dailyrainin,SolarRadiationWatts/m^2,SoftwareType,DateUTC
2013-06-16 00:10:00,58.5,52.0,30.24,WSW,248,1.0,4.0,79,0.00,,,0.00,0,weatherlink.com 1.10,2013-06-16 08:10:00,
2013-06-16 00:25:00,57.8,52.0,30.24,WSW,248,0.0,1.0,81,0.00,,,0.00,0,weatherlink.com 1.10,2013-06-16 08:25:00,
2013-06-16 00:40:00,57.5,52.0,30.23,WSW,248,0.0,1.0,81,0.00,,,0.00,0,weatherlink.com 1.10,2013-06-16 08:40:00,
2013-06-16 00:55:00,57.9,52.0,30.23,WSW,248,0.0,0.0,80,0.00,,,0.00,0,weatherlink.com 1.10,2013-06-16 08:55:00,
2013-06-16 01:10:00,58.1,52.0,30.23,WSW,248,0.0,2.0,80,0.00,,,0.00,0,weatherlink.com 1.10,2013-06-16 09:10:00,
2013-06-16 01:25:00,59.0,52.0,30.23,WSW,248,0.0,1.0,77,0.00,,,0.00,0,weatherlink.com 1.10,2013-06-16 09:25:00,
2013-06-16 01:40:00,59.0,51.0,30.23,WSW,248,0.0,0.0,75,0.00,,,0.00,0,weatherlink.com 1.10,2013-06-16 09:40:00,
2013-06-16 01:55:00,59.5,52.0,30.23,WSW,248,0.0,1.0,76,0.00,,,0.00,0,weatherlink.com 1.10,2013-06-16 09:55:00,
2013-06-16 02:10:00,58.9,52.0,30.23,WSW,248,0.0,0.0,77,0.00,,,0.00,0,weatherlink.com 1.10,2013-06-16 10:10:00,
2013-06-16 02:25:00,58.1,51.0,30.24,WSW,248,4.0,5.0,78,0.00,,,0.00,0,weatherlink.com 1.10,2013-06-16 10:25:00,
2013-06-16 02:40:00,57.6,50.0,30.24,WSW,248,2.0,5.0,77,0.00,,,0.00,0,weatherlink.com 1.10,2013-06-16 10:40:00,
2013-06-16 02:56:00,57.3,51.0,30.24,WSW,248,0.0,2.0,78,0.00,,,0.00,0,weatherlink.com 1.10,2013-06-16 10:56:00,
2013-06-16 03:11:00,57.0,50.0,30.24,WSW,248,2.0,2.0,78,0.00,,,0.00,0,weatherlink.com 1.10,2013-06-16 11:11:00,
2013-06-16 03:26:00,56.8,50.0,30.24,WSW,248,0.0,4.0,78,0.00,,,0.00,0,weatherlink.com 1.10,2013-06-16 11:26:00,
2013-06-16 03:41:00,56.7,50.0,30.24,WSW,248,2.0,4.0,78,0.00,,,0.00,0,weatherlink.com 1.10,2013-06-16 11:41:00,
2013-06-16 03:56:00,56.1,49.0,30.24,WSW,248,0.0,2.0,78,0.00,,,0.00,0,weatherlink.com 1.10,2013-06-16 11:56:00,
2013-06-16 04:11:00,55.8,49.0,30.24,WSW,248,0.0,2.0,78,0.00,,,0.00,0,weatherlink.com 1.10,2013-06-16 12:11:00,
2013-06-16 04:26:00,56.0,49.0,30.24,WSW,248,1.0,5.0,77,0.00,,,0.00,5,weatherlink.com 1.10,2013-06-16 12:26:00,
2013-06-16 04:41:00,55.7,48.0,30.24,WSW,248,0.0,1.0,76,0.00,,,0.00,11,weatherlink.com 1.10,2013-06-16 12:41:00,
2013-06-16 04:56:00,55.7,49.0,30.24,WSW,248,0.0,0.0,77,0.00,,,0.00,18,weatherlink.com 1.10,2013-06-16 12:56:00,
2013-06-16 05:11:00,56.1,49.0,30.25,WSW,248,0.0,0.0,77,0.00,,,0.00,30,weatherlink.com 1.10,2013-06-16 13:11:00,
2013-06-16 05:26:00,56.5,49.0,30.24,WSW,248,0.0,0.0,75,0.00,,,0.00,40,weatherlink.com 1.10,2013-06-16 13:26:00,
2013-06-16 05:41:00,57.0,50.0,30.24,WSW,248,0.0,0.0,77,0.00,,,0.00,46,weatherlink.com 1.10,2013-06-16 13:41:00,
2013-06-16 05:56:00,58.1,50.0,30.24,WSW,248,1.0,2.0,75,0.00,,,0.00,32,weatherlink.com 1.10,2013-06-16 13:56:00,
2013-06-16 06:11:00,59.1,49.0,30.24,WSW,249,1.0,4.0,70,0.00,,,0.00,100,weatherlink.com 1.10,2013-06-16 14:11:00,
2013-06-16 06:26:00,58.9,50.0,30.23,WSW,252,0.0,2.0,73,0.00,,,0.00,123,weatherlink.com 1.10,2013-06-16 14:26:00,
2013-06-16 06:41:00,59.9,50.0,30.23,WSW,251,0.0,2.0,71,0.00,,,0.00,167,weatherlink.com 1.10,2013-06-16 14:41:00,
2013-06-16 06:56:00,59.1,50.0,30.23,WSW,251,2.0,4.0,73,0.00,,,0.00,185,weatherlink.com 1.10,2013-06-16 14:56:00,
2013-06-16 07:11:00,58.4,52.0,30.23,WSW,250,3.0,5.0,78,0.00,,,0.00,204,weatherlink.com 1.10,2013-06-16 15:11:00,
2013-06-16 07:26:00,58.4,52.0,30.23,WSW,247,4.0,6.0,79,0.00,,,0.00,232,weatherlink.com 1.10,2013-06-16 15:26:00,
2013-06-16 07:41:00,58.9,52.0,30.24,WSW,254,1.0,5.0,79,0.00,,,0.00,278,weatherlink.com 1.10,2013-06-16 15:41:00,
2013-06-16 07:56:00,60.4,53.0,30.24,WSW,254,0.0,4.0,77,0.00,,,0.00,294,weatherlink.com 1.10,2013-06-16 15:56:00,
2013-06-16 08:11:00,60.1,53.0,30.24,WSW,243,2.0,6.0,76,0.00,,,0.00,330,weatherlink.com 1.10,2013-06-16 16:11:00,
2013-06-16 08:26:00,59.5,52.0,30.24,WSW,244,4.0,6.0,76,0.00,,,0.00,364,weatherlink.com 1.10,2013-06-16 16:26:00,
2013-06-16 08:41:00,59.5,52.0,30.24,WSW,238,5.0,6.0,76,0.00,,,0.00,399,weatherlink.com 1.10,2013-06-16 16:41:00,
2013-06-16 08:56:00,60.2,52.0,30.24,WSW,241,5.0,6.0,74,0.00,,,0.00,392,weatherlink.com 1.10,2013-06-16 16:56:00,
2013-06-16 09:11:00,60.5,52.0,30.23,WSW,240,6.0,6.0,73,0.00,,,0.00,464,weatherlink.com 1.10,2013-06-16 17:11:00,
2013-06-16 09:26:00,62.4,53.0,30.23,WSW,255,5.0,6.0,71,0.00,,,0.00,469,weatherlink.com 1.10,2013-06-16 17:26:00,
2013-06-16 09:41:00,62.0,52.0,30.23,WSW,243,3.0,6.0,71,0.00,,,0.00,489,weatherlink.com 1.10,2013-06-16 17:41:00,
2013-06-16 09:56:00,62.9,53.0,30.23,WSW,246,2.0,6.0,70,0.00,,,0.00,515,weatherlink.com 1.10,2013-06-16 17:56:00,
2013-06-16 10:11:00,63.4,53.0,30.23,WSW,240,0.0,6.0,69,0.00,,,0.00,515,weatherlink.com 1.10,2013-06-16 18:11:00,
2013-06-16 10:26:00,65.2,53.0,30.22,WSW,243,3.0,6.0,65,0.00,,,0.00,527,weatherlink.com 1.10,2013-06-16 18:26:00,
2013-06-16 10:41:00,65.6,53.0,30.22,WSW,242,1.0,6.0,65,0.00,,,0.00,591,weatherlink.com 1.10,2013-06-16 18:41:00,
2013-06-16 10:56:00,66.3,53.0,30.21,WSW,238,1.0,7.0,63,0.00,,,0.00,571,weatherlink.com 1.10,2013-06-16 18:56:00,
2013-06-16 11:11:00,67.5,53.0,30.21,West,267,2.0,5.0,60,0.00,,,0.00,547,weatherlink.com 1.10,2013-06-16 19:11:00,
2013-06-16 11:26:00,69.4,54.0,30.21,WSW,257,6.0,6.0,58,0.00,,,0.00,568,weatherlink.com 1.10,2013-06-16 19:26:00,
2013-06-16 11:41:00,69.7,54.0,30.21,West,263,2.0,6.0,57,0.00,,,0.00,652,weatherlink.com 1.10,2013-06-16 19:41:00,
2013-06-16 11:56:00,70.8,54.0,30.21,West,275,4.0,4.0,56,0.00,,,0.00,599,weatherlink.com 1.10,2013-06-16 19:56:00,
2013-06-16 12:11:00,71.8,56.0,30.20,West,263,3.0,8.0,58,0.00,,,0.00,420,weatherlink.com 1.10,2013-06-16 20:11:00,
2013-06-16 12:26:00,71.1,55.0,30.20,West,260,4.0,7.0,58,0.00,,,0.00,679,weatherlink.com 1.10,2013-06-16 20:26:00,
2013-06-16 12:41:00,72.3,55.0,30.20,West,268,5.0,5.0,55,0.00,,,0.00,304,weatherlink.com 1.10,2013-06-16 20:41:00,
2013-06-16 12:56:00,72.8,56.0,30.20,West,261,0.0,6.0,55,0.00,,,0.00,79,weatherlink.com 1.10,2013-06-16 20:56:00,
2013-06-16 13:11:00,72.9,57.0,30.20,WSW,257,4.0,8.0,58,0.00,,,0.00,77,weatherlink.com 1.10,2013-06-16 21:11:00,
2013-06-16 13:26:00,71.6,56.0,30.20,WSW,250,5.0,7.0,58,0.00,,,0.00,70,weatherlink.com 1.10,2013-06-16 21:26:00,
2013-06-16 13:41:00,73.4,57.0,30.19,West,259,6.0,8.0,57,0.00,,,0.00,70,weatherlink.com 1.10,2013-06-16 21:41:00,
2013-06-16 13:56:00,72.7,56.0,30.18,WSW,238,5.0,8.0,57,0.00,,,0.00,72,weatherlink.com 1.10,2013-06-16 21:56:00,
2013-06-16 14:12:00,73.8,57.0,30.19,SW,233,7.0,8.0,57,0.00,,,0.00,74,weatherlink.com 1.10,2013-06-16 22:12:00,
2013-06-16 14:27:00,74.2,58.0,30.18,West,262,5.0,8.0,57,0.00,,,0.00,76,weatherlink.com 1.10,2013-06-16 22:27:00,
2013-06-16 14:42:00,74.1,57.0,30.18,SW,234,3.0,7.0,55,0.00,,,0.00,76,weatherlink.com 1.10,2013-06-16 22:42:00,
2013-06-16 14:57:00,74.1,57.0,30.17,WSW,257,5.0,8.0,56,0.00,,,0.00,72,weatherlink.com 1.10,2013-06-16 22:57:00,
2013-06-16 15:12:00,74.1,58.0,30.17,WSW,243,4.0,7.0,57,0.00,,,0.00,60,weatherlink.com 1.10,2013-06-16 23:12:00,
2013-06-16 15:27:00,75.4,58.0,30.17,WSW,248,1.0,8.0,55,0.00,,,0.00,53,weatherlink.com 1.10,2013-06-16 23:27:00,
2013-06-16 15:42:00,75.8,59.0,30.16,WSW,249,5.0,7.0,57,0.00,,,0.00,686,weatherlink.com 1.10,2013-06-16 23:42:00,
2013-06-16 15:57:00,75.8,59.0,30.16,WSW,250,4.0,7.0,56,0.00,,,0.00,664,weatherlink.com 1.10,2013-06-16 23:57:00,
2013-06-16 16:12:00,76.0,60.0,30.16,West,263,7.0,8.0,57,0.00,,,0.00,54,weatherlink.com 1.10,2013-06-17 00:12:00,
2013-06-16 16:27:00,75.1,59.0,30.16,SW,232,7.0,8.0,57,0.00,,,0.00,58,weatherlink.com 1.10,2013-06-17 00:27:00,
2013-06-16 16:42:00,76.6,59.0,30.15,SW,233,5.0,9.0,55,0.00,,,0.00,612,weatherlink.com 1.10,2013-06-17 00:42:00,
2013-06-16 16:57:00,76.2,59.0,30.15,WSW,246,8.0,10.0,55,0.00,,,0.00,596,weatherlink.com 1.10,2013-06-17 00:57:00,
2013-06-16 17:12:00,75.5,59.0,30.14,SW,236,8.0,10.0,56,0.00,,,0.00,513,weatherlink.com 1.10,2013-06-17 01:12:00,
2013-06-16 17:27:00,74.9,59.0,30.14,WSW,255,7.0,9.0,58,0.00,,,0.00,91,weatherlink.com 1.10,2013-06-17 01:27:00,
2013-06-16 17:42:00,72.3,58.0,30.14,SW,227,7.0,9.0,61,0.00,,,0.00,436,weatherlink.com 1.10,2013-06-17 01:42:00,
2013-06-16 17:57:00,71.6,59.0,30.14,WSW,248,7.0,8.0,64,0.00,,,0.00,517,weatherlink.com 1.10,2013-06-17 01:57:00,
2013-06-16 18:12:00,71.3,58.0,30.14,West,262,7.0,10.0,64,0.00,,,0.00,466,weatherlink.com 1.10,2013-06-17 02:12:00,
2013-06-16 18:27:00,74.4,59.0,30.13,SW,224,1.0,8.0,60,0.00,,,0.00,469,weatherlink.com 1.10,2013-06-17 02:27:00,
2013-06-16 18:42:00,74.8,60.0,30.13,WSW,251,4.0,8.0,60,0.00,,,0.00,425,weatherlink.com 1.10,2013-06-17 02:42:00,
2013-06-16 18:57:00,74.7,59.0,30.12,West,270,6.0,7.0,58,0.00,,,0.00,448,weatherlink.com 1.10,2013-06-17 02:57:00,
2013-06-16 19:12:00,76.2,58.0,30.12,WSW,246,5.0,7.0,54,0.00,,,0.00,339,weatherlink.com 1.10,2013-06-17 03:12:00,
2013-06-16 19:27:00,76.0,58.0,30.12,WSW,242,5.0,8.0,53,0.00,,,0.00,251,weatherlink.com 1.10,2013-06-17 03:27:00,
2013-06-16 19:42:00,75.7,57.0,30.12,WSW,251,5.0,7.0,53,0.00,,,0.00,278,weatherlink.com 1.10,2013-06-17 03:42:00,
2013-06-16 19:57:00,75.2,58.0,30.11,WSW,237,3.0,6.0,55,0.00,,,0.00,260,weatherlink.com 1.10,2013-06-17 03:57:00,
2013-06-16 20:12:00,75.9,59.0,30.11,SSW,205,1.0,6.0,56,0.00,,,0.00,209,weatherlink.com 1.10,2013-06-17 04:12:00,
2013-06-16 20:27:00,75.5,59.0,30.12,West,263,7.0,9.0,56,0.00,,,0.00,181,weatherlink.com 1.10,2013-06-17 04:27:00,
2013-06-16 20:42:00,71.7,58.0,30.12,SW,216,5.0,8.0,63,0.00,,,0.00,176,weatherlink.com 1.10,2013-06-17 04:42:00,
2013-06-16 20:57:00,72.6,59.0,30.11,SSW,205,5.0,7.0,62,0.00,,,0.00,160,weatherlink.com 1.10,2013-06-17 04:57:00,
2013-06-16 21:12:00,73.8,59.0,30.11,SSW,205,0.0,6.0,61,0.00,,,0.00,151,weatherlink.com 1.10,2013-06-17 05:12:00,
2013-06-16 21:27:00,74.4,57.0,30.10,SSW,192,4.0,9.0,55,0.00,,,0.00,123,weatherlink.com 1.10,2013-06-17 05:27:00,
2013-06-16 21:42:00,74.1,56.0,30.11,SSW,208,4.0,9.0,53,0.00,,,0.00,69,weatherlink.com 1.10,2013-06-17 05:42:00,
2013-06-16 21:57:00,73.5,58.0,30.11,SW,216,4.0,8.0,59,0.00,,,0.00,54,weatherlink.com 1.10,2013-06-17 05:57:00,
2013-06-16 22:12:00,72.4,59.0,30.11,SW,227,4.0,4.0,62,0.00,,,0.00,51,weatherlink.com 1.10,2013-06-17 06:12:00,
2013-06-16 22:27:00,72.3,55.0,30.11,SSW,198,3.0,7.0,54,0.00,,,0.00,33,weatherlink.com 1.10,2013-06-17 06:27:00,
2013-06-16 22:42:00,72.2,54.0,30.11,SSW,198,0.0,5.0,54,0.00,,,0.00,21,weatherlink.com 1.10,2013-06-17 06:42:00,
2013-06-16 22:57:00,72.1,54.0,30.11,SSE,151,1.0,2.0,54,0.00,,,0.00,14,weatherlink.com 1.10,2013-06-17 06:57:00,
2013-06-16 23:12:00,71.8,53.0,30.11,ESE,121,0.0,2.0,51,0.00,,,0.00,9,weatherlink.com 1.10,2013-06-17 07:12:00,
2013-06-16 23:27:00,71.1,53.0,30.12,ESE,119,0.0,4.0,53,0.00,,,0.00,5,weatherlink.com 1.10,2013-06-17 07:27:00,
2013-06-16 23:42:00,70.0,52.0,30.11,ESE,119,0.0,2.0,54,0.00,,,0.00,0,weatherlink.com 1.10,2013-06-17 07:42:00,
2013-06-16 23:57:00,69.6,53.0,30.11,ESE,119,0.0,1.0,55,0.00,,,0.00,0,weatherlink.com 1.10,2013-06-17 07:57:00,